sensor_id;sensor_type;location;lat;lon;timestamp;P1;durP1;ratioP1;P2;durP2;ratioP2
3004;SDS011;1512;51.486;6.610;2022-12-20T00:01:07;7.63;;;6.10;;
3004;SDS011;1512;51.486;6.610;2022-12-20T00:05:17;5.00;;;4.03;;
3004;SDS011;1512;51.486;6.610;2022-12-20T00:13:54;5.37;;;4.17;;
3004;SDS011;1512;51.486;6.610;2022-12-20T00:18:03;5.40;;;4.70;;
3004;SDS011;1512;51.486;6.610;2022-12-20T00:22:12;5.53;;;4.33;;
3004;SDS011;1512;51.486;6.610;2022-12-20T00:26:22;5.70;;;4.30;;
3004;SDS011;1512;51.486;6.610;2022-12-20T00:30:34;6.77;;;4.53;;
3004;SDS011;1512;51.486;6.610;2022-12-20T00:34:43;5.50;;;3.90;;
3004;SDS011;1512;51.486;6.610;2022-12-20T00:38:52;9.53;;;5.20;;
3004;SDS011;1512;51.486;6.610;2022-12-20T00:43:01;6.70;;;5.23;;
3004;SDS011;1512;51.486;6.610;2022-12-20T00:47:10;7.30;;;4.23;;
3004;SDS011;1512;51.486;6.610;2022-12-20T00:51:20;6.43;;;4.50;;
3004;SDS011;1512;51.486;6.610;2022-12-20T00:55:30;5.70;;;4.37;;
3004;SDS011;1512;51.486;6.610;2022-12-20T00:59:39;5.43;;;4.20;;
3004;SDS011;1512;51.486;6.610;2022-12-20T01:03:48;7.00;;;5.37;;
3004;SDS011;1512;51.486;6.610;2022-12-20T01:07:58;9.30;;;3.73;;
3004;SDS011;1512;51.486;6.610;2022-12-20T01:12:07;7.93;;;4.10;;
3004;SDS011;1512;51.486;6.610;2022-12-20T01:16:20;4.47;;;3.90;;
3004;SDS011;1512;51.486;6.610;2022-12-20T01:20:30;5.13;;;4.20;;
3004;SDS011;1512;51.486;6.610;2022-12-20T01:24:38;5.93;;;4.10;;
3004;SDS011;1512;51.486;6.610;2022-12-20T01:28:47;4.40;;;3.60;;
3004;SDS011;1512;51.486;6.610;2022-12-20T01:32:59;3.73;;;3.43;;
3004;SDS011;1512;51.486;6.610;2022-12-20T01:37:07;7.87;;;3.77;;
3004;SDS011;1512;51.486;6.610;2022-12-20T01:41:17;4.90;;;3.77;;
3004;SDS011;1512;51.486;6.610;2022-12-20T01:45:28;8.03;;;4.30;;
3004;SDS011;1512;51.486;6.610;2022-12-20T01:49:38;5.23;;;3.70;;
3004;SDS011;1512;51.486;6.610;2022-12-20T01:53:54;3.73;;;3.07;;
3004;SDS011;1512;51.486;6.610;2022-12-20T01:58:07;3.70;;;3.02;;
3004;SDS011;1512;51.486;6.610;2022-12-20T02:02:18;3.73;;;3.23;;
3004;SDS011;1512;51.486;6.610;2022-12-20T02:06:26;5.03;;;3.27;;
3004;SDS011;1512;51.486;6.610;2022-12-20T02:11:25;4.20;;;2.83;;
3004;SDS011;1512;51.486;6.610;2022-12-20T02:33:11;6.23;;;3.00;;
3004;SDS011;1512;51.486;6.610;2022-12-20T02:37:21;3.10;;;2.80;;
3004;SDS011;1512;51.486;6.610;2022-12-20T02:41:36;3.53;;;2.83;;
3004;SDS011;1512;51.486;6.610;2022-12-20T02:50:11;3.40;;;3.10;;
3004;SDS011;1512;51.486;6.610;2022-12-20T02:54:21;5.33;;;3.47;;
3004;SDS011;1512;51.486;6.610;2022-12-20T02:58:33;5.97;;;3.13;;
3004;SDS011;1512;51.486;6.610;2022-12-20T03:02:48;4.07;;;3.67;;
3004;SDS011;1512;51.486;6.610;2022-12-20T03:07:17;3.50;;;3.20;;
3004;SDS011;1512;51.486;6.610;2022-12-20T03:11:26;5.43;;;3.87;;
3004;SDS011;1512;51.486;6.610;2022-12-20T03:15:35;4.83;;;3.63;;
3004;SDS011;1512;51.486;6.610;2022-12-20T03:24:12;4.07;;;3.03;;
3004;SDS011;1512;51.486;6.610;2022-12-20T03:28:21;3.53;;;3.23;;
3004;SDS011;1512;51.486;6.610;2022-12-20T03:32:30;3.87;;;3.47;;
3004;SDS011;1512;51.486;6.610;2022-12-20T03:36:40;4.53;;;3.33;;
3004;SDS011;1512;51.486;6.610;2022-12-20T03:40:49;3.70;;;3.40;;
3004;SDS011;1512;51.486;6.610;2022-12-20T03:44:57;9.63;;;3.80;;
3004;SDS011;1512;51.486;6.610;2022-12-20T03:49:06;4.07;;;3.40;;
3004;SDS011;1512;51.486;6.610;2022-12-20T03:53:15;4.90;;;4.47;;
3004;SDS011;1512;51.486;6.610;2022-12-20T03:57:23;5.90;;;4.90;;
3004;SDS011;1512;51.486;6.610;2022-12-20T04:01:32;6.33;;;3.77;;
3004;SDS011;1512;51.486;6.610;2022-12-20T04:05:44;5.13;;;4.63;;
3004;SDS011;1512;51.486;6.610;2022-12-20T04:14:21;8.00;;;5.37;;
3004;SDS011;1512;51.486;6.610;2022-12-20T04:18:29;7.93;;;4.43;;
3004;SDS011;1512;51.486;6.610;2022-12-20T04:22:38;7.90;;;4.83;;
3004;SDS011;1512;51.486;6.610;2022-12-20T04:26:46;6.50;;;3.80;;
3004;SDS011;1512;51.486;6.610;2022-12-20T04:30:55;7.10;;;4.40;;
3004;SDS011;1512;51.486;6.610;2022-12-20T04:35:06;5.50;;;4.57;;
3004;SDS011;1512;51.486;6.610;2022-12-20T04:39:34;7.83;;;5.40;;
3004;SDS011;1512;51.486;6.610;2022-12-20T04:43:42;5.70;;;4.67;;
3004;SDS011;1512;51.486;6.610;2022-12-20T04:47:51;9.93;;;5.20;;
3004;SDS011;1512;51.486;6.610;2022-12-20T04:51:59;10.60;;;5.93;;
3004;SDS011;1512;51.486;6.610;2022-12-20T04:56:10;4.83;;;4.13;;
3004;SDS011;1512;51.486;6.610;2022-12-20T05:00:18;5.27;;;4.47;;
3004;SDS011;1512;51.486;6.610;2022-12-20T05:04:48;7.00;;;5.07;;
3004;SDS011;1512;51.486;6.610;2022-12-20T05:08:56;4.97;;;4.17;;
3004;SDS011;1512;51.486;6.610;2022-12-20T05:13:05;5.30;;;4.77;;
3004;SDS011;1512;51.486;6.610;2022-12-20T05:17:15;8.63;;;4.30;;
3004;SDS011;1512;51.486;6.610;2022-12-20T05:21:24;6.10;;;4.67;;
3004;SDS011;1512;51.486;6.610;2022-12-20T05:25:52;5.47;;;4.53;;
3004;SDS011;1512;51.486;6.610;2022-12-20T05:30:18;6.83;;;4.80;;
3004;SDS011;1512;51.486;6.610;2022-12-20T05:34:27;5.20;;;4.60;;
3004;SDS011;1512;51.486;6.610;2022-12-20T05:38:36;6.50;;;5.40;;
3004;SDS011;1512;51.486;6.610;2022-12-20T05:42:45;6.33;;;4.77;;
3004;SDS011;1512;51.486;6.610;2022-12-20T05:46:53;5.13;;;4.30;;
3004;SDS011;1512;51.486;6.610;2022-12-20T05:51:02;8.30;;;4.97;;
3004;SDS011;1512;51.486;6.610;2022-12-20T05:55:11;5.70;;;5.00;;
3004;SDS011;1512;51.486;6.610;2022-12-20T05:59:20;6.67;;;4.67;;
3004;SDS011;1512;51.486;6.610;2022-12-20T06:03:28;7.27;;;4.83;;
3004;SDS011;1512;51.486;6.610;2022-12-20T06:07:38;5.00;;;4.50;;
3004;SDS011;1512;51.486;6.610;2022-12-20T06:11:47;5.13;;;4.63;;
3004;SDS011;1512;51.486;6.610;2022-12-20T06:15:56;6.57;;;4.67;;
3004;SDS011;1512;51.486;6.610;2022-12-20T06:20:06;6.80;;;5.70;;
3004;SDS011;1512;51.486;6.610;2022-12-20T06:24:17;6.90;;;5.20;;
3004;SDS011;1512;51.486;6.610;2022-12-20T06:28:27;5.93;;;5.33;;
3004;SDS011;1512;51.486;6.610;2022-12-20T06:37:04;6.90;;;5.67;;
3004;SDS011;1512;51.486;6.610;2022-12-20T06:45:33;6.70;;;5.77;;
3004;SDS011;1512;51.486;6.610;2022-12-20T06:54:12;7.40;;;5.30;;
3004;SDS011;1512;51.486;6.610;2022-12-20T07:02:52;4.67;;;4.20;;
3004;SDS011;1512;51.486;6.610;2022-12-20T07:07:01;5.87;;;5.30;;
3004;SDS011;1512;51.486;6.610;2022-12-20T07:11:10;4.10;;;3.80;;
3004;SDS011;1512;51.486;6.610;2022-12-20T07:15:18;6.53;;;4.80;;
3004;SDS011;1512;51.486;6.610;2022-12-20T07:19:28;5.33;;;4.87;;
3004;SDS011;1512;51.486;6.610;2022-12-20T07:23:36;6.07;;;4.73;;
3004;SDS011;1512;51.486;6.610;2022-12-20T07:27:48;5.00;;;4.47;;
3004;SDS011;1512;51.486;6.610;2022-12-20T07:31:57;4.70;;;4.20;;
3004;SDS011;1512;51.486;6.610;2022-12-20T07:36:06;8.60;;;5.37;;
3004;SDS011;1512;51.486;6.610;2022-12-20T07:40:19;10.77;;;4.83;;
3004;SDS011;1512;51.486;6.610;2022-12-20T07:44:28;4.70;;;4.30;;
3004;SDS011;1512;51.486;6.610;2022-12-20T07:48:39;6.80;;;4.80;;
3004;SDS011;1512;51.486;6.610;2022-12-20T07:52:47;6.87;;;4.70;;
3004;SDS011;1512;51.486;6.610;2022-12-20T07:57:05;5.60;;;5.10;;
3004;SDS011;1512;51.486;6.610;2022-12-20T08:01:16;6.80;;;5.30;;
3004;SDS011;1512;51.486;6.610;2022-12-20T08:05:31;5.92;;;4.70;;
3004;SDS011;1512;51.486;6.610;2022-12-20T08:09:41;6.10;;;4.73;;
3004;SDS011;1512;51.486;6.610;2022-12-20T08:13:51;8.00;;;5.70;;
3004;SDS011;1512;51.486;6.610;2022-12-20T08:18:02;7.17;;;5.10;;
3004;SDS011;1512;51.486;6.610;2022-12-20T08:22:12;5.83;;;5.23;;
3004;SDS011;1512;51.486;6.610;2022-12-20T08:26:23;9.37;;;5.10;;
3004;SDS011;1512;51.486;6.610;2022-12-20T08:30:32;6.07;;;4.90;;
3004;SDS011;1512;51.486;6.610;2022-12-20T08:34:45;10.03;;;4.90;;
3004;SDS011;1512;51.486;6.610;2022-12-20T08:38:54;7.37;;;5.00;;
3004;SDS011;1512;51.486;6.610;2022-12-20T08:43:02;10.10;;;6.00;;
3004;SDS011;1512;51.486;6.610;2022-12-20T08:47:13;7.50;;;5.30;;
3004;SDS011;1512;51.486;6.610;2022-12-20T08:51:25;5.10;;;4.60;;
3004;SDS011;1512;51.486;6.610;2022-12-20T08:55:35;5.37;;;4.77;;
3004;SDS011;1512;51.486;6.610;2022-12-20T08:59:43;5.60;;;4.77;;
3004;SDS011;1512;51.486;6.610;2022-12-20T09:03:52;6.10;;;5.20;;
3004;SDS011;1512;51.486;6.610;2022-12-20T09:08:00;13.50;;;5.07;;
3004;SDS011;1512;51.486;6.610;2022-12-20T09:12:09;6.20;;;4.93;;
3004;SDS011;1512;51.486;6.610;2022-12-20T09:16:19;4.87;;;4.37;;
3004;SDS011;1512;51.486;6.610;2022-12-20T09:20:29;7.40;;;5.60;;
3004;SDS011;1512;51.486;6.610;2022-12-20T09:24:38;6.67;;;4.83;;
3004;SDS011;1512;51.486;6.610;2022-12-20T09:28:47;6.10;;;4.53;;
3004;SDS011;1512;51.486;6.610;2022-12-20T09:32:56;5.03;;;4.53;;
3004;SDS011;1512;51.486;6.610;2022-12-20T09:37:06;5.27;;;4.70;;
3004;SDS011;1512;51.486;6.610;2022-12-20T09:45:44;6.40;;;4.97;;
3004;SDS011;1512;51.486;6.610;2022-12-20T09:54:31;5.40;;;4.33;;
3004;SDS011;1512;51.486;6.610;2022-12-20T10:02:57;6.10;;;5.60;;
3004;SDS011;1512;51.486;6.610;2022-12-20T10:16:28;6.27;;;5.67;;
3004;SDS011;1512;51.486;6.610;2022-12-20T10:20:43;10.50;;;6.27;;
3004;SDS011;1512;51.486;6.610;2022-12-20T10:24:55;7.70;;;5.37;;
3004;SDS011;1512;51.486;6.610;2022-12-20T10:29:03;5.50;;;4.97;;
3004;SDS011;1512;51.486;6.610;2022-12-20T10:33:19;5.73;;;4.70;;
3004;SDS011;1512;51.486;6.610;2022-12-20T10:37:31;4.97;;;4.47;;
3004;SDS011;1512;51.486;6.610;2022-12-20T10:45:55;6.70;;;5.55;;
3004;SDS011;1512;51.486;6.610;2022-12-20T10:50:07;6.60;;;5.10;;
3004;SDS011;1512;51.486;6.610;2022-12-20T10:54:21;13.07;;;4.60;;
3004;SDS011;1512;51.486;6.610;2022-12-20T10:58:35;5.77;;;5.17;;
3004;SDS011;1512;51.486;6.610;2022-12-20T11:02:45;7.37;;;4.30;;
3004;SDS011;1512;51.486;6.610;2022-12-20T11:06:57;5.50;;;4.50;;
3004;SDS011;1512;51.486;6.610;2022-12-20T11:11:12;7.93;;;4.90;;
3004;SDS011;1512;51.486;6.610;2022-12-20T11:24:30;4.80;;;3.80;;
3004;SDS011;1512;51.486;6.610;2022-12-20T11:28:55;6.03;;;4.50;;
3004;SDS011;1512;51.486;6.610;2022-12-20T11:42:26;5.43;;;4.07;;
3004;SDS011;1512;51.486;6.610;2022-12-20T11:51:37;5.00;;;3.57;;
3004;SDS011;1512;51.486;6.610;2022-12-20T11:56:00;8.40;;;4.90;;
3004;SDS011;1512;51.486;6.610;2022-12-20T12:00:11;8.50;;;3.60;;
3004;SDS011;1512;51.486;6.610;2022-12-20T12:04:24;4.37;;;3.90;;
3004;SDS011;1512;51.486;6.610;2022-12-20T12:13:10;4.60;;;4.00;;
3004;SDS011;1512;51.486;6.610;2022-12-20T12:21:58;3.72;;;3.33;;
3004;SDS011;1512;51.486;6.610;2022-12-20T12:26:16;8.60;;;4.20;;
3004;SDS011;1512;51.486;6.610;2022-12-20T12:30:28;4.77;;;4.10;;
3004;SDS011;1512;51.486;6.610;2022-12-20T12:52:41;4.40;;;4.00;;
3004;SDS011;1512;51.486;6.610;2022-12-20T12:56:52;4.00;;;3.70;;
3004;SDS011;1512;51.486;6.610;2022-12-20T13:01:08;4.20;;;3.57;;
3004;SDS011;1512;51.486;6.610;2022-12-20T13:09:39;7.53;;;4.17;;
3004;SDS011;1512;51.486;6.610;2022-12-20T13:18:30;4.10;;;3.10;;
3004;SDS011;1512;51.486;6.610;2022-12-20T13:22:39;3.73;;;3.43;;
3004;SDS011;1512;51.486;6.610;2022-12-20T13:26:51;4.13;;;3.60;;
3004;SDS011;1512;51.486;6.610;2022-12-20T13:35:40;4.63;;;3.40;;
3004;SDS011;1512;51.486;6.610;2022-12-20T13:39:35;12.83;;;4.13;;
3004;SDS011;1512;51.486;6.610;2022-12-20T13:43:44;8.70;;;3.83;;
3004;SDS011;1512;51.486;6.610;2022-12-20T13:47:54;5.40;;;3.90;;
3004;SDS011;1512;51.486;6.610;2022-12-20T14:00:37;3.40;;;3.20;;
3004;SDS011;1512;51.486;6.610;2022-12-20T14:04:50;3.50;;;2.60;;
3004;SDS011;1512;51.486;6.610;2022-12-20T14:08:58;3.30;;;3.10;;
3004;SDS011;1512;51.486;6.610;2022-12-20T14:13:25;5.70;;;3.60;;
3004;SDS011;1512;51.486;6.610;2022-12-20T14:17:31;4.27;;;3.40;;
3004;SDS011;1512;51.486;6.610;2022-12-20T14:21:42;7.07;;;3.30;;
3004;SDS011;1512;51.486;6.610;2022-12-20T14:25:53;4.10;;;3.70;;
3004;SDS011;1512;51.486;6.610;2022-12-20T14:30:04;6.93;;;4.07;;
3004;SDS011;1512;51.486;6.610;2022-12-20T14:34:17;7.20;;;3.63;;
3004;SDS011;1512;51.486;6.610;2022-12-20T14:38:38;4.47;;;3.60;;
3004;SDS011;1512;51.486;6.610;2022-12-20T14:42:48;3.90;;;3.47;;
3004;SDS011;1512;51.486;6.610;2022-12-20T14:46:58;4.10;;;2.77;;
3004;SDS011;1512;51.486;6.610;2022-12-20T14:51:09;6.30;;;2.83;;
3004;SDS011;1512;51.486;6.610;2022-12-20T14:55:29;4.60;;;4.20;;
3004;SDS011;1512;51.486;6.610;2022-12-20T14:59:43;3.00;;;2.80;;
3004;SDS011;1512;51.486;6.610;2022-12-20T15:08:28;3.30;;;3.00;;
3004;SDS011;1512;51.486;6.610;2022-12-20T15:12:38;4.10;;;3.70;;
3004;SDS011;1512;51.486;6.610;2022-12-20T15:16:48;3.77;;;3.40;;
3004;SDS011;1512;51.486;6.610;2022-12-20T15:21:41;4.93;;;3.13;;
3004;SDS011;1512;51.486;6.610;2022-12-20T15:25:16;4.47;;;4.07;;
3004;SDS011;1512;51.486;6.610;2022-12-20T15:29:26;3.83;;;3.43;;
3004;SDS011;1512;51.486;6.610;2022-12-20T15:33:36;5.80;;;4.13;;
3004;SDS011;1512;51.486;6.610;2022-12-20T15:37:46;3.43;;;3.10;;
3004;SDS011;1512;51.486;6.610;2022-12-20T15:41:55;5.23;;;3.87;;
3004;SDS011;1512;51.486;6.610;2022-12-20T15:46:07;6.07;;;4.10;;
3004;SDS011;1512;51.486;6.610;2022-12-20T15:50:15;5.00;;;4.50;;
3004;SDS011;1512;51.486;6.610;2022-12-20T15:54:31;4.57;;;4.00;;
3004;SDS011;1512;51.486;6.610;2022-12-20T15:58:41;4.78;;;4.20;;
3004;SDS011;1512;51.486;6.610;2022-12-20T16:02:50;6.60;;;4.70;;
3004;SDS011;1512;51.486;6.610;2022-12-20T16:06:59;4.60;;;4.10;;
3004;SDS011;1512;51.486;6.610;2022-12-20T16:11:20;5.40;;;4.67;;
3004;SDS011;1512;51.486;6.610;2022-12-20T16:15:33;5.37;;;4.87;;
3004;SDS011;1512;51.486;6.610;2022-12-20T16:19:42;6.20;;;4.23;;
3004;SDS011;1512;51.486;6.610;2022-12-20T16:23:51;12.70;;;4.70;;
3004;SDS011;1512;51.486;6.610;2022-12-20T16:28:01;4.70;;;4.07;;
3004;SDS011;1512;51.486;6.610;2022-12-20T16:32:16;5.80;;;3.60;;
3004;SDS011;1512;51.486;6.610;2022-12-20T16:36:28;6.20;;;5.00;;
3004;SDS011;1512;51.486;6.610;2022-12-20T16:40:36;4.17;;;3.70;;
3004;SDS011;1512;51.486;6.610;2022-12-20T16:44:45;5.47;;;4.97;;
3004;SDS011;1512;51.486;6.610;2022-12-20T16:48:59;9.03;;;4.23;;
3004;SDS011;1512;51.486;6.610;2022-12-20T16:53:11;6.80;;;4.67;;
3004;SDS011;1512;51.486;6.610;2022-12-20T16:57:21;8.90;;;5.17;;
3004;SDS011;1512;51.486;6.610;2022-12-20T17:01:30;7.87;;;4.67;;
3004;SDS011;1512;51.486;6.610;2022-12-20T17:05:43;8.27;;;4.83;;
3004;SDS011;1512;51.486;6.610;2022-12-20T17:09:53;5.83;;;4.63;;
3004;SDS011;1512;51.486;6.610;2022-12-20T17:14:17;5.40;;;4.53;;
3004;SDS011;1512;51.486;6.610;2022-12-20T17:18:26;5.30;;;4.60;;
3004;SDS011;1512;51.486;6.610;2022-12-20T17:22:34;7.53;;;5.07;;
3004;SDS011;1512;51.486;6.610;2022-12-20T17:27:01;5.77;;;4.37;;
3004;SDS011;1512;51.486;6.610;2022-12-20T17:35:40;9.73;;;5.37;;
3004;SDS011;1512;51.486;6.610;2022-12-20T17:39:49;6.03;;;4.73;;
3004;SDS011;1512;51.486;6.610;2022-12-20T17:43:58;7.73;;;5.50;;
3004;SDS011;1512;51.486;6.610;2022-12-20T17:48:08;6.60;;;5.90;;
3004;SDS011;1512;51.486;6.610;2022-12-20T17:52:17;10.40;;;7.13;;
3004;SDS011;1512;51.486;6.610;2022-12-20T17:56:29;6.40;;;5.17;;
3004;SDS011;1512;51.486;6.610;2022-12-20T18:00:39;6.00;;;5.37;;
3004;SDS011;1512;51.486;6.610;2022-12-20T18:04:48;6.40;;;5.53;;
3004;SDS011;1512;51.486;6.610;2022-12-20T18:08:57;10.80;;;5.80;;
3004;SDS011;1512;51.486;6.610;2022-12-20T18:13:07;7.73;;;6.17;;
3004;SDS011;1512;51.486;6.610;2022-12-20T18:17:15;8.53;;;5.87;;
3004;SDS011;1512;51.486;6.610;2022-12-20T18:21:24;6.23;;;5.50;;
3004;SDS011;1512;51.486;6.610;2022-12-20T18:25:33;6.80;;;5.73;;
3004;SDS011;1512;51.486;6.610;2022-12-20T18:29:42;7.53;;;5.00;;
3004;SDS011;1512;51.486;6.610;2022-12-20T18:33:51;8.10;;;6.70;;
3004;SDS011;1512;51.486;6.610;2022-12-20T18:38:02;8.03;;;5.60;;
3004;SDS011;1512;51.486;6.610;2022-12-20T18:42:11;7.20;;;5.07;;
3004;SDS011;1512;51.486;6.610;2022-12-20T18:46:20;10.50;;;5.93;;
3004;SDS011;1512;51.486;6.610;2022-12-20T18:50:30;7.70;;;6.27;;
3004;SDS011;1512;51.486;6.610;2022-12-20T18:54:40;7.80;;;5.77;;
3004;SDS011;1512;51.486;6.610;2022-12-20T18:58:49;11.20;;;7.50;;
3004;SDS011;1512;51.486;6.610;2022-12-20T19:02:58;8.67;;;6.23;;
3004;SDS011;1512;51.486;6.610;2022-12-20T19:07:08;13.00;;;6.90;;
3004;SDS011;1512;51.486;6.610;2022-12-20T19:11:22;8.97;;;6.93;;
3004;SDS011;1512;51.486;6.610;2022-12-20T19:15:29;5.50;;;5.00;;
3004;SDS011;1512;51.486;6.610;2022-12-20T19:19:38;6.47;;;5.67;;
3004;SDS011;1512;51.486;6.610;2022-12-20T19:23:50;5.83;;;5.20;;
3004;SDS011;1512;51.486;6.610;2022-12-20T19:28:00;10.73;;;6.77;;
3004;SDS011;1512;51.486;6.610;2022-12-20T19:32:09;6.37;;;5.60;;
3004;SDS011;1512;51.486;6.610;2022-12-20T19:36:23;6.60;;;5.33;;
3004;SDS011;1512;51.486;6.610;2022-12-20T19:40:30;6.47;;;5.80;;
3004;SDS011;1512;51.486;6.610;2022-12-20T19:44:39;10.20;;;6.17;;
3004;SDS011;1512;51.486;6.610;2022-12-20T19:48:50;8.83;;;6.20;;
3004;SDS011;1512;51.486;6.610;2022-12-20T19:52:59;6.20;;;5.60;;
3004;SDS011;1512;51.486;6.610;2022-12-20T19:57:08;6.87;;;5.13;;
3004;SDS011;1512;51.486;6.610;2022-12-20T20:01:17;6.73;;;5.57;;
3004;SDS011;1512;51.486;6.610;2022-12-20T20:05:28;6.37;;;5.47;;
3004;SDS011;1512;51.486;6.610;2022-12-20T20:09:37;8.50;;;5.70;;
3004;SDS011;1512;51.486;6.610;2022-12-20T20:18:16;12.23;;;5.83;;
3004;SDS011;1512;51.486;6.610;2022-12-20T20:22:27;7.07;;;5.10;;
3004;SDS011;1512;51.486;6.610;2022-12-20T20:26:36;5.90;;;5.30;;
3004;SDS011;1512;51.486;6.610;2022-12-20T20:30:45;7.70;;;5.17;;
3004;SDS011;1512;51.486;6.610;2022-12-20T20:34:55;7.70;;;5.50;;
3004;SDS011;1512;51.486;6.610;2022-12-20T20:39:03;6.10;;;5.50;;
3004;SDS011;1512;51.486;6.610;2022-12-20T20:43:12;7.57;;;5.77;;
3004;SDS011;1512;51.486;6.610;2022-12-20T20:47:21;6.80;;;6.20;;
3004;SDS011;1512;51.486;6.610;2022-12-20T20:51:29;7.00;;;5.43;;
3004;SDS011;1512;51.486;6.610;2022-12-20T20:55:38;6.53;;;5.47;;
3004;SDS011;1512;51.486;6.610;2022-12-20T20:59:46;11.00;;;7.53;;
3004;SDS011;1512;51.486;6.610;2022-12-20T21:03:55;8.33;;;6.70;;
3004;SDS011;1512;51.486;6.610;2022-12-20T21:08:04;10.43;;;6.53;;
3004;SDS011;1512;51.486;6.610;2022-12-20T21:12:12;9.23;;;6.33;;
3004;SDS011;1512;51.486;6.610;2022-12-20T21:16:22;10.10;;;6.33;;
3004;SDS011;1512;51.486;6.610;2022-12-20T21:20:31;10.10;;;7.10;;
3004;SDS011;1512;51.486;6.610;2022-12-20T21:24:42;8.00;;;6.93;;
3004;SDS011;1512;51.486;6.610;2022-12-20T21:28:54;11.33;;;8.17;;
3004;SDS011;1512;51.486;6.610;2022-12-20T21:33:11;10.47;;;8.43;;
3004;SDS011;1512;51.486;6.610;2022-12-20T21:41:48;10.27;;;8.23;;
3004;SDS011;1512;51.486;6.610;2022-12-20T21:45:57;11.90;;;9.90;;
3004;SDS011;1512;51.486;6.610;2022-12-20T21:50:06;13.57;;;8.67;;
3004;SDS011;1512;51.486;6.610;2022-12-20T21:54:15;10.53;;;8.37;;
3004;SDS011;1512;51.486;6.610;2022-12-20T22:02:40;10.80;;;7.80;;
3004;SDS011;1512;51.486;6.610;2022-12-20T22:06:49;12.70;;;9.00;;
3004;SDS011;1512;51.486;6.610;2022-12-20T22:10:58;10.60;;;8.37;;
3004;SDS011;1512;51.486;6.610;2022-12-20T22:15:08;15.03;;;9.70;;
3004;SDS011;1512;51.486;6.610;2022-12-20T22:19:20;10.77;;;8.33;;
3004;SDS011;1512;51.486;6.610;2022-12-20T22:23:30;12.67;;;10.50;;
3004;SDS011;1512;51.486;6.610;2022-12-20T22:27:41;11.43;;;7.97;;
3004;SDS011;1512;51.486;6.610;2022-12-20T22:31:55;11.07;;;8.40;;
3004;SDS011;1512;51.486;6.610;2022-12-20T22:36:04;9.70;;;7.73;;
3004;SDS011;1512;51.486;6.610;2022-12-20T22:40:13;11.10;;;8.63;;
3004;SDS011;1512;51.486;6.610;2022-12-20T22:44:22;13.10;;;9.17;;
3004;SDS011;1512;51.486;6.610;2022-12-20T22:48:31;15.27;;;8.80;;
3004;SDS011;1512;51.486;6.610;2022-12-20T22:52:40;11.47;;;8.53;;
3004;SDS011;1512;51.486;6.610;2022-12-20T22:56:48;11.13;;;9.10;;
3004;SDS011;1512;51.486;6.610;2022-12-20T23:00:57;12.50;;;8.37;;
3004;SDS011;1512;51.486;6.610;2022-12-20T23:05:07;9.97;;;6.90;;
3004;SDS011;1512;51.486;6.610;2022-12-20T23:13:44;13.53;;;8.53;;
3004;SDS011;1512;51.486;6.610;2022-12-20T23:18:11;9.47;;;7.57;;
3004;SDS011;1512;51.486;6.610;2022-12-20T23:22:20;13.30;;;8.17;;
3004;SDS011;1512;51.486;6.610;2022-12-20T23:26:46;9.20;;;6.70;;
3004;SDS011;1512;51.486;6.610;2022-12-20T23:30:54;10.40;;;7.53;;
3004;SDS011;1512;51.486;6.610;2022-12-20T23:35:03;10.23;;;6.90;;
3004;SDS011;1512;51.486;6.610;2022-12-20T23:39:14;11.53;;;7.03;;
3004;SDS011;1512;51.486;6.610;2022-12-20T23:43:23;8.00;;;6.43;;
3004;SDS011;1512;51.486;6.610;2022-12-20T23:47:31;6.67;;;5.93;;
3004;SDS011;1512;51.486;6.610;2022-12-20T23:51:40;7.80;;;6.60;;
3004;SDS011;1512;51.486;6.610;2022-12-20T23:56:02;8.43;;;5.80;;
